Flight Track Log - Related Links

Times and Time Zones

All times are in EDT time to prevent confusion due to time zone crossing. See the UAL4849 flight status page for this flight to view local times or setup timezone preferences in your user account.

Time Position Orientation Groundspeed Altitude Reporting Facility
EDT Latitude Longitude Course Direction KTS MPH feet Rate Location/Type
Sun 11:07:00 AM 41.0209 -73.3239 63° Northeast  Level Estimated
Sun 11:08:00 AM 41.0426 -73.2673 63° Northeast  Level Estimated
Sun 11:09:00 AM 41.0673 -73.2026 63° Northeast  Level Estimated
Sun 11:10:00 AM 41.0920 -73.1378 63° Northeast  Level Estimated
Sun 11:11:00 AM 41.1166 -73.0729 63° Northeast  Level Estimated
Sun 11:12:00 AM 41.1413 -73.0080 63° Northeast  Level Estimated
Sun 11:13:00 AM 41.1659 -72.9431 63° Northeast  Level Estimated
Sun 11:14:00 AM 41.1904 -72.8781 63° Northeast  Level Estimated
Sun 11:15:00 AM 41.2149 -72.8131 63° Northeast  Level Estimated
Sun 11:16:00 AM 41.2394 -72.7480 63° Northeast  Level Estimated
Sun 11:17:00 AM 41.2639 -72.6828 63° Northeast  Level Estimated
Sun 11:18:00 AM 41.2883 -72.6176 63° Northeast  Level Estimated
Sun 11:19:00 AM 41.3126 -72.5524 64° Northeast  Level Estimated
Sun 11:20:00 AM 41.3370 -72.4871 64° Northeast  Level Estimated
Sun 11:21:00 AM 41.3613 -72.4218 64° Northeast  Level Estimated
Sun 11:22:00 AM 41.3855 -72.3564 64° Northeast  Level Estimated
Sun 11:23:00 AM 41.4098 -72.2910 64° Northeast  Level Estimated
Sun 11:24:00 AM 41.4339 -72.2255 64° Northeast  Level Estimated
Sun 11:25:00 AM 41.4581 -72.1600 64° Northeast  Level Estimated
Sun 11:26:00 AM 41.4822 -72.0944 64° Northeast  Level Estimated
Sun 11:27:00 AM 41.5063 -72.0288 64° Northeast  Level Estimated
Sun 11:28:00 AM 41.5303 -71.9631 64° Northeast  Level Estimated
Sun 11:29:00 AM 41.5543 -71.8974 64° Northeast  Level Estimated
Sun 11:30:00 AM 41.5783 -71.8316 64° Northeast  Level Estimated
Sun 11:31:00 AM 41.6022 -71.7658 64° Northeast  Level Estimated
Sun 11:32:00 AM 41.6261 -71.6999 64° Northeast  Level Estimated
Sun 11:33:00 AM 41.6499 -71.6340 64° Northeast  Level Estimated
Sun 11:34:00 AM 41.6737 -71.5680 64° Northeast  Level Estimated
Sun 11:35:00 AM 41.6975 -71.5020 64° Northeast  Level Estimated
Sun 11:36:00 AM 41.7212 -71.4360 64° Northeast  Level Estimated
Sun 11:37:00 AM 41.7240 -71.4282 64° Northeast  Level Estimated
Sun 11:38:00 AM 41.7240 -71.4282 226° Southwest  Level Estimated
Sun 11:39:00 AM 41.7240 -71.4282 226° Southwest  Level Estimated
Sun 11:40:00 AM 41.7240 -71.4282 226° Southwest  Level Estimated
Sun 11:41:00 AM 41.7240 -71.4282 226° Southwest  Level Estimated
Sun 11:42:00 AM 41.7240 -71.4282 226° Southwest  Level Estimated
Sun 11:43:00 AM 41.7240 -71.4282 226° Southwest  Level Estimated
Sun 11:44:00 AM 41.7240 -71.4282 226° Southwest  Level Estimated
Sun 11:45:00 AM 41.7240 -71.4282 226° Southwest  Level Estimated
Sun 11:46:00 AM 41.7240 -71.4282 226° Southwest  Level Estimated
Sun 11:47:00 AM 41.7240 -71.4282 226° Southwest  Level Estimated
Sun 11:48:00 AM 41.7240 -71.4282 226° Southwest  Level Estimated
Sun 11:49:00 AM 41.7240 -71.4282 226° Southwest  Level Estimated
Sun 11:50:00 AM 41.7240 -71.4282 226° Southwest  Level Estimated

Login

Don't have an account? Register now (free) for customized features, flight alerts, and more!